Time;durP1;ratioP1;P1;durP2;ratioP2;P2;SDS_P1;SDS_P2;PMS_P1;PMS_P2;Temp;Humidity;BMP_temperature;BMP_pressure;BME280_temperature;BME280_humidity;BME280_pressure;Samples;Min_cycle;Max_cycle;Signal;HPM_P1;HPM_P2
2024/01/26 00:00:04;;;;;;;;;;;;;;;-144.99;100.00;52603.00;5004639;28;19929;-68
2024/01/26 00:02:30;;;;;;;;;;;;;;;-144.99;100.00;52615.25;5004519;28;19965;-68
2024/01/26 00:04:57;;;;;;;;;;;;;;;-144.99;100.00;52572.44;4663281;28;10000137;-68
2024/01/26 00:07:25;;;;;;;;;;;;;;;-144.99;100.00;52598.94;5007887;28;19985;-69
2024/01/26 00:09:51;;;;;;;;;;;;;;;-144.99;100.00;52529.63;5004758;28;19949;-69
2024/01/26 00:12:18;;;;;;;;;;;;;;;-144.99;100.00;52590.78;4998372;28;19996;-69
2024/01/26 00:14:44;;;;;;;;;;;;;;;-144.99;100.00;52611.16;5004659;28;19925;-68
2024/01/26 00:17:10;;;;;;;;;;;;;;;-144.99;100.00;52566.31;5009456;28;19950;-68
2024/01/26 00:19:37;;;;;;;;;;;;;;;-144.99;100.00;52594.84;4991058;28;20178;-68
2024/01/26 00:22:04;;;;;;;;;;;;;;;-144.99;100.00;52574.47;4991240;28;19933;-73
2024/01/26 00:24:31;;;;;;;;;;;;;;;-144.99;100.00;52598.94;4989275;28;20031;-73
2024/01/26 00:26:58;;;;;;;;;;;;;;;-144.99;100.00;52586.69;4990963;28;20008;-73
2024/01/26 00:29:24;;;;;;;;;;;;;;;-144.99;100.00;52566.31;5007359;23;20027;-65
2024/01/26 00:31:51;;;;;;;;;;;;;;;-144.99;100.00;52596.88;5006207;28;19973;-66
2024/01/26 00:34:17;;;;;;;;;;;;;;;-144.99;100.00;52598.94;4985702;28;20288;-66
2024/01/26 00:36:44;;;;;;;;;;;;;;;-144.99;100.00;52562.25;5005016;28;20031;-65
2024/01/26 00:39:11;;;;;;;;;;;;;;;-144.99;100.00;52564.28;5003952;28;20399;-65
2024/01/26 00:41:39;;;;;;;;;;;;;;;-144.99;100.00;52586.69;5007080;28;19936;-65
2024/01/26 00:44:05;;;;;;;;;;;;;;;-144.99;100.00;52607.09;5008365;28;20034;-72
2024/01/26 00:46:32;;;;;;;;;;;;;;;-144.99;100.00;52578.53;5005368;28;19996;-72
2024/01/26 00:48:58;;;;;;;;;;;;;;;-144.99;100.00;52590.78;5007305;28;20157;-72
2024/01/26 00:51:25;;;;;;;;;;;;;;;-144.99;100.00;52623.38;5004503;28;19964;-72
2024/01/26 00:53:51;;;;;;;;;;;;;;;-144.99;100.00;52574.47;5011243;28;19979;-73
2024/01/26 00:56:18;;;;;;;;;;;;;;;-144.99;100.00;52590.78;5005224;28;19929;-71
2024/01/26 00:58:46;;;;;;;;;;;;;;;-144.99;100.00;52562.25;5009576;28;20360;-70
2024/01/26 01:01:13;;;;;;;;;;;;;;;-144.99;100.00;52590.78;5009353;28;20001;-70
2024/01/26 01:03:40;;;;;;;;;;;;;;;-144.99;100.00;52550.00;5011785;28;19968;-71
2024/01/26 01:06:06;;;;;;;;;;;;;;;-144.99;100.00;52578.53;5009678;28;19980;-71
2024/01/26 01:08:32;;;;;;;;;;;;;;;-144.99;100.00;52582.63;5009976;28;20017;-71
2024/01/26 01:10:59;;;;;;;;;;;;;;;-144.99;100.00;52590.78;5008628;28;19961;-72
2024/01/26 01:13:26;;;;;;;;;;;;;;;-144.99;100.00;52574.47;5011410;28;19929;-72
2024/01/26 01:15:53;;;;;;;;;;;;;;;-144.99;100.00;52586.69;5008954;28;20029;-71
2024/01/26 01:18:20;;;;;;;;;;;;;;;-144.99;100.00;52560.19;4989859;28;19932;-72
2024/01/26 01:20:47;;;;;;;;;;;;;;;-144.99;100.00;52576.50;5008347;28;19980;-72
2024/01/26 01:23:15;;;;;;;;;;;;;;;-144.99;100.00;52574.47;5010185;28;20039;-71
2024/01/26 01:25:41;;;;;;;;;;;;;;;-144.99;100.00;52598.94;5007335;28;20017;-70
2024/01/26 01:28:09;;;;;;;;;;;;;;;-144.99;100.00;52582.63;5010050;28;20028;-71
2024/01/26 01:30:35;;;;;;;;;;;;;;;-144.99;100.00;52562.25;5004295;28;19936;-69
2024/01/26 01:33:03;;;;;;;;;;;;;;;-144.99;100.00;52603.00;5005596;28;20463;-70
2024/01/26 01:35:31;;;;;;;;;;;;;;;-144.99;100.00;52594.84;5009502;28;19937;-71
2024/01/26 01:37:57;;;;;;;;;;;;;;;-144.99;100.00;52570.38;5006307;28;19926;-71
2024/01/26 01:40:24;;;;;;;;;;;;;;;-144.99;100.00;52570.38;5009777;28;19965;-71
2024/01/26 01:42:50;;;;;;;;;;;;;;;-144.99;100.00;52550.00;5009171;28;19965;-66
2024/01/26 01:45:17;;;;;;;;;;;;;;;-144.99;100.00;52545.94;5001707;28;19988;-69
2024/01/26 01:47:43;;;;;;;;;;;;;;;-144.99;100.00;52574.47;5008962;28;20044;-65
2024/01/26 01:50:11;;;;;;;;;;;;;;;-144.99;100.00;52558.16;5008349;28;19929;-66
2024/01/26 01:52:39;;;;;;;;;;;;;;;-144.99;100.00;52582.63;5007866;28;20023;-65
2024/01/26 01:55:08;;;;;;;;;;;;;;;-144.99;100.00;52590.78;5010384;28;20017;-66
2024/01/26 01:57:36;;;;;;;;;;;;;;;-144.99;100.00;52562.25;5005808;28;19949;-65
2024/01/26 02:00:04;;;;;;;;;;;;;;;-144.99;100.00;52600.97;5009962;28;19972;-66
2024/01/26 02:02:30;;;;;;;;;;;;;;;-144.99;100.00;52607.09;5008819;28;20017;-66
2024/01/26 02:04:57;;;;;;;;;;;;;;;-144.99;100.00;52592.81;5010699;28;20403;-67
2024/01/26 02:07:25;;;;;;;;;;;;;;;-144.99;100.00;52558.16;5004676;28;20015;-68
2024/01/26 02:09:51;;;;;;;;;;;;;;;-144.99;100.00;52545.94;5008325;28;19987;-67
2024/01/26 02:12:18;;;;;;;;;;;;;;;-144.99;100.00;52564.28;5006281;28;19979;-70
2024/01/26 02:14:45;;;;;;;;;;;;;;;-144.99;100.00;52550.00;5004115;28;19972;-67
2024/01/26 02:17:11;;;;;;;;;;;;;;;-144.99;100.00;52574.47;5003113;28;20031;-66
2024/01/26 02:19:38;;;;;;;;;;;;;;;-144.99;100.00;52523.50;5009432;28;19984;-68
2024/01/26 02:22:04;;;;;;;;;;;;;;;-144.99;100.00;52550.00;5007771;28;20020;-66
2024/01/26 02:24:32;;;;;;;;;;;;;;;-144.99;100.00;52527.59;4986722;28;20350;-66
2024/01/26 02:26:59;;;;;;;;;;;;;;;-144.99;100.00;52570.38;5003779;28;19980;-65
2024/01/26 02:29:25;;;;;;;;;;;;;;;-144.99;100.00;52566.31;5008693;28;19973;-65
2024/01/26 02:31:52;;;;;;;;;;;;;;;-144.99;100.00;52570.38;5009070;28;20467;-64
2024/01/26 02:34:18;;;;;;;;;;;;;;;-144.99;100.00;52582.63;5008427;28;20375;-64
2024/01/26 02:36:45;;;;;;;;;;;;;;;-144.99;100.00;52580.59;5009790;28;20020;-65
2024/01/26 02:39:11;;;;;;;;;;;;;;;-144.99;100.00;52558.16;5010311;28;19968;-66
2024/01/26 02:41:40;;;;;;;;;;;;;;;-144.99;100.00;52541.84;5007201;28;20020;-64
2024/01/26 02:44:07;;;;;;;;;;;;;;;-144.99;100.00;52541.84;5007791;28;19992;-64
2024/01/26 02:46:33;;;;;;;;;;;;;;;-144.99;100.00;52578.53;5009038;28;20403;-64
2024/01/26 02:49:01;;;;;;;;;;;;;;;-144.99;100.00;52558.16;5007771;28;19929;-63
2024/01/26 02:51:28;;;;;;;;;;;;;;;-144.99;100.00;52562.25;5008689;28;20070;-64
2024/01/26 02:53:54;;;;;;;;;;;;;;;-144.99;100.00;52562.25;5008425;28;19972;-65
2024/01/26 02:56:21;;;;;;;;;;;;;;;-144.99;100.00;52590.78;5002301;28;20034;-69
2024/01/26 02:58:48;;;;;;;;;;;;;;;-144.99;100.00;52566.31;5000101;28;19926;-70
2024/01/26 03:01:15;;;;;;;;;;;;;;;-144.99;100.00;52619.31;4996180;28;20010;-68
2024/01/26 03:03:42;;;;;;;;;;;;;;;-144.99;100.00;52562.25;5003972;28;19972;-69
2024/01/26 03:06:11;;;;;;;;;;;;;;;-144.99;100.00;52550.00;5006402;28;19930;-69
2024/01/26 03:08:38;;;;;;;;;;;;;;;-144.99;100.00;52558.16;5002575;28;19929;-68
2024/01/26 03:11:04;;;;;;;;;;;;;;;-144.99;100.00;52570.38;5009368;28;19972;-69
2024/01/26 03:13:31;;;;;;;;;;;;;;;-144.99;100.00;52578.53;5001608;28;19992;-67
2024/01/26 03:15:59;;;;;;;;;;;;;;;-144.99;100.00;52554.09;5005505;28;19969;-69
2024/01/26 03:18:25;;;;;;;;;;;;;;;-144.99;100.00;52574.47;5003041;28;20341;-68
2024/01/26 03:20:52;;;;;;;;;;;;;;;-144.99;100.00;52566.31;5007829;28;19932;-72
2024/01/26 03:23:18;;;;;;;;;;;;;;;-144.99;100.00;52566.31;5009443;28;19925;-69
2024/01/26 03:25:45;;;;;;;;;;;;;;;-144.99;100.00;52613.19;5002477;28;19952;-68
2024/01/26 03:28:12;;;;;;;;;;;;;;;-144.99;100.00;52525.56;5003871;28;20025;-66
2024/01/26 03:30:40;;;;;;;;;;;;;;;-144.99;100.00;52552.03;5006845;28;19925;-70
2024/01/26 03:33:07;;;;;;;;;;;;;;;-144.99;100.00;52545.94;5008917;28;20395;-71
2024/01/26 03:35:34;;;;;;;;;;;;;;;-144.99;100.00;52529.63;5006365;28;20044;-75
2024/01/26 03:38:00;;;;;;;;;;;;;;;-144.99;100.00;52554.09;5004267;28;19926;-75
2024/01/26 03:40:27;;;;;;;;;;;;;;;-144.99;100.00;52572.44;5005411;28;20024;-76
2024/01/26 03:42:53;;;;;;;;;;;;;;;-144.99;100.00;52582.63;5007286;28;19933;-68
2024/01/26 03:45:20;;;;;;;;;;;;;;;-144.99;100.00;52572.44;5006941;28;19988;-69
2024/01/26 03:47:46;;;;;;;;;;;;;;;-144.99;100.00;52586.69;5001835;28;20046;-68
2024/01/26 03:50:16;;;;;;;;;;;;;;;-144.99;100.00;52558.16;5007363;28;19927;-68
2024/01/26 03:52:43;;;;;;;;;;;;;;;-144.99;100.00;52533.69;5008309;28;19925;-71
2024/01/26 03:55:09;;;;;;;;;;;;;;;-144.99;100.00;52582.63;5003654;28;20040;-71
2024/01/26 03:57:37;;;;;;;;;;;;;;;-144.99;100.00;52582.63;5003744;28;20012;-70
2024/01/26 04:00:04;;;;;;;;;;;;;;;-144.99;100.00;52574.47;5001210;28;19992;-70
2024/01/26 04:02:35;;;;;;;;;;;;;;;-144.99;100.00;52558.16;5009464;28;19976;-75
2024/01/26 04:05:02;;;;;;;;;;;;;;;-144.99;100.00;52586.69;5009364;28;20356;-74
2024/01/26 04:07:29;;;;;;;;;;;;;;;-144.99;100.00;52531.66;5008408;28;19937;-72
2024/01/26 04:09:56;;;;;;;;;;;;;;;-144.99;100.00;52570.38;5006854;28;19925;-73
2024/01/26 04:12:23;;;;;;;;;;;;;;;-144.99;100.00;52570.38;5011628;28;19953;-71
2024/01/26 04:14:50;;;;;;;;;;;;;;;-144.99;100.00;52586.69;5007909;28;19929;-72
2024/01/26 04:17:16;;;;;;;;;;;;;;;-144.99;100.00;52564.28;5013086;28;19991;-74
2024/01/26 04:19:46;;;;;;;;;;;;;;;-144.99;100.00;52554.09;5010263;28;20644;-74
2024/01/26 04:22:12;;;;;;;;;;;;;;;-144.99;100.00;52582.63;5011932;28;20567;-73
2024/01/26 04:24:40;;;;;;;;;;;;;;;-144.99;100.00;52590.78;5006983;28;19983;-74
2024/01/26 04:27:07;;;;;;;;;;;;;;;-144.99;100.00;52582.63;5006553;28;19949;-73
2024/01/26 04:29:34;;;;;;;;;;;;;;;-144.99;100.00;52566.31;5006418;28;19965;-70
2024/01/26 04:32:00;;;;;;;;;;;;;;;-144.99;100.00;52537.78;5003313;28;19980;-70
2024/01/26 04:34:26;;;;;;;;;;;;;;;-144.99;100.00;52550.00;5006114;28;19932;-71
2024/01/26 04:36:53;;;;;;;;;;;;;;;-144.99;100.00;52558.16;5004080;28;19968;-70
2024/01/26 04:39:19;;;;;;;;;;;;;;;-144.99;100.00;52537.78;5001028;28;19969;-70
2024/01/26 04:41:47;;;;;;;;;;;;;;;-144.99;100.00;52521.47;5004285;28;19984;-69
2024/01/26 04:44:14;;;;;;;;;;;;;;;-144.99;100.00;52550.00;5006387;28;20016;-69
2024/01/26 04:46:40;;;;;;;;;;;;;;;-144.99;100.00;52582.63;5002163;28;19932;-71
2024/01/26 04:49:07;;;;;;;;;;;;;;;-144.99;100.00;52558.16;5008882;28;19933;-71
2024/01/26 04:51:33;;;;;;;;;;;;;;;-144.99;100.00;52574.47;5007487;28;19929;-70
2024/01/26 04:54:00;;;;;;;;;;;;;;;-144.99;100.00;52562.25;5003740;28;20036;-69
2024/01/26 04:56:26;;;;;;;;;;;;;;;-144.99;100.00;52558.16;5004753;28;19977;-71
2024/01/26 04:58:54;;;;;;;;;;;;;;;-144.99;100.00;52582.63;5008391;28;19957;-70
2024/01/26 05:01:21;;;;;;;;;;;;;;;-144.99;100.00;52570.38;5005448;28;20864;-69
2024/01/26 05:03:47;;;;;;;;;;;;;;;-144.99;100.00;52588.75;5003108;28;20016;-69
2024/01/26 05:06:15;;;;;;;;;;;;;;;-144.99;100.00;52570.38;5005423;28;19984;-71
2024/01/26 05:08:41;;;;;;;;;;;;;;;-144.99;100.00;52521.47;5004679;28;20358;-69
2024/01/26 05:11:08;;;;;;;;;;;;;;;-144.99;100.00;52562.25;4982842;28;20046;-69
2024/01/26 05:13:34;;;;;;;;;;;;;;;-144.99;100.00;52554.09;5005790;28;19933;-68
2024/01/26 05:16:02;;;;;;;;;;;;;;;-144.99;100.00;52590.78;5007313;28;19992;-71
2024/01/26 05:18:29;;;;;;;;;;;;;;;-144.99;100.00;52574.47;5004954;28;19929;-71
2024/01/26 05:20:56;;;;;;;;;;;;;;;-144.99;100.00;52580.59;5007083;28;21064;-70
2024/01/26 05:23:22;;;;;;;;;;;;;;;-144.99;100.00;52558.16;5007033;28;20332;-67
2024/01/26 05:25:49;;;;;;;;;;;;;;;-144.99;100.00;52537.78;5005885;28;20489;-67
2024/01/26 05:28:16;;;;;;;;;;;;;;;-144.99;100.00;52545.94;5001280;28;19925;-71
2024/01/26 05:30:42;;;;;;;;;;;;;;;-144.99;100.00;52545.94;5005632;28;19948;-67
2024/01/26 05:33:10;;;;;;;;;;;;;;;-144.99;100.00;52556.13;5003573;28;19967;-66
2024/01/26 05:35:38;;;;;;;;;;;;;;;-144.99;100.00;52558.16;5005415;28;19925;-66
2024/01/26 05:38:04;;;;;;;;;;;;;;;-144.99;100.00;52554.09;5005946;28;19930;-68
2024/01/26 05:40:31;;;;;;;;;;;;;;;-144.99;100.00;52537.78;5004020;28;19933;-67
2024/01/26 05:42:58;;;;;;;;;;;;;;;-144.99;100.00;52547.97;5007406;28;19930;-71
2024/01/26 05:45:24;;;;;;;;;;;;;;;-144.99;100.00;52574.47;5008455;28;20370;-70
2024/01/26 05:47:51;;;;;;;;;;;;;;;-144.99;100.00;52521.47;5008370;28;19926;-70
2024/01/26 05:50:21;;;;;;;;;;;;;;;-144.99;100.00;52582.63;5007086;28;19929;-71
2024/01/26 05:52:47;;;;;;;;;;;;;;;-144.99;100.00;52545.94;5004434;28;20020;-70
2024/01/26 05:55:14;;;;;;;;;;;;;;;-144.99;100.00;52541.84;5007753;28;19929;-71
2024/01/26 05:57:41;;;;;;;;;;;;;;;-144.99;100.00;52566.31;5006216;28;19972;-71
2024/01/26 06:00:08;;;;;;;;;;;;;;;-144.99;100.00;52525.56;5007165;28;19980;-71
2024/01/26 06:02:36;;;;;;;;;;;;;;;-144.99;100.00;52529.63;5008239;28;20364;-70
2024/01/26 06:05:03;;;;;;;;;;;;;;;-144.99;100.00;52554.09;5007752;28;20466;-70
2024/01/26 06:07:31;;;;;;;;;;;;;;;-144.99;100.00;52558.16;5009543;28;19929;-69
2024/01/26 06:09:57;;;;;;;;;;;;;;;-144.99;100.00;52543.91;5008131;28;19936;-70
2024/01/26 06:12:24;;;;;;;;;;;;;;;-144.99;100.00;52517.41;5006135;28;19929;-64
2024/01/26 06:14:50;;;;;;;;;;;;;;;-144.99;100.00;52554.09;5004192;28;20671;-71
2024/01/26 06:17:17;;;;;;;;;;;;;;;-144.99;100.00;52596.88;5006231;28;20387;-76
2024/01/26 06:19:44;;;;;;;;;;;;;;;-144.99;100.00;52545.94;5005715;28;19980;-76
2024/01/26 06:22:10;;;;;;;;;;;;;;;-144.99;100.00;52521.47;5008741;28;20272;-78
2024/01/26 06:24:38;;;;;;;;;;;;;;;-144.99;100.00;52533.69;5009354;28;19972;-76
2024/01/26 06:27:05;;;;;;;;;;;;;;;-144.99;100.00;52590.78;5008434;28;19968;-77
2024/01/26 06:29:31;;;;;;;;;;;;;;;-144.99;100.00;52541.84;5004201;28;19941;-80
2024/01/26 06:31:59;;;;;;;;;;;;;;;-144.99;100.00;52590.78;5010797;28;19929;-80
2024/01/26 06:34:25;;;;;;;;;;;;;;;-144.99;100.00;52517.41;4663404;28;9999918;-80
2024/01/26 06:36:52;;;;;;;;;;;;;;;-144.99;100.00;52545.94;4999869;28;19929;-80
2024/01/26 06:39:19;;;;;;;;;;;;;;;-144.99;100.00;52566.31;5002322;28;19930;-79
2024/01/26 06:41:47;;;;;;;;;;;;;;;-144.99;100.00;52574.47;5008105;28;19933;-79
2024/01/26 06:44:14;;;;;;;;;;;;;;;-144.99;100.00;52533.69;5003634;28;19930;-79
2024/01/26 06:46:41;;;;;;;;;;;;;;;-144.99;100.00;52539.81;5011017;28;19941;-79
2024/01/26 06:49:08;;;;;;;;;;;;;;;-144.99;100.00;52529.63;5010396;28;19926;-79
2024/01/26 06:51:35;;;;;;;;;;;;;;;-144.99;100.00;52521.47;5015017;28;20318;-79
2024/01/26 06:54:01;;;;;;;;;;;;;;;-144.99;100.00;52582.63;5009545;28;19961;-79
2024/01/26 06:56:28;;;;;;;;;;;;;;;-144.99;100.00;52539.81;5016678;28;20311;-79
2024/01/26 06:58:56;;;;;;;;;;;;;;;-144.99;100.00;52517.41;5008938;28;19926;-80
2024/01/26 07:01:22;;;;;;;;;;;;;;;-144.99;100.00;52533.69;5010630;28;19925;-80
2024/01/26 07:03:49;;;;;;;;;;;;;;;-144.99;100.00;52550.00;5008734;28;20075;-80
2024/01/26 07:06:15;;;;;;;;;;;;;;;-144.99;100.00;52533.69;5005191;28;19925;-79
2024/01/26 07:08:42;;;;;;;;;;;;;;;-144.99;100.00;52547.97;5007039;28;20025;-80
2024/01/26 07:11:08;;;;;;;;;;;;;;;-144.99;100.00;52545.94;5008272;28;20007;-79
2024/01/26 07:13:35;;;;;;;;;;;;;;;-144.99;100.00;52492.94;5008246;28;19999;-79
2024/01/26 07:16:03;;;;;;;;;;;;;;;-144.99;100.00;52545.94;5002627;28;19972;-80
2024/01/26 07:18:29;;;;;;;;;;;;;;;-144.99;100.00;52558.16;5013791;28;20453;-80
2024/01/26 07:20:56;;;;;;;;;;;;;;;-144.99;100.00;52558.16;5007078;28;19992;-79
2024/01/26 07:23:23;;;;;;;;;;;;;;;-144.99;100.00;52582.63;5008483;28;19941;-81
2024/01/26 07:25:49;;;;;;;;;;;;;;;-144.99;100.00;52525.56;4998915;28;20291;-80
2024/01/26 07:28:16;;;;;;;;;;;;;;;-144.99;100.00;52529.63;5005495;28;20068;-81
2024/01/26 07:30:42;;;;;;;;;;;;;;;-144.99;100.00;52521.47;5010113;28;19973;-80
2024/01/26 07:33:10;;;;;;;;;;;;;;;-144.99;100.00;52521.47;5007821;28;19933;-80
2024/01/26 07:35:37;;;;;;;;;;;;;;;-144.99;100.00;52529.63;5005704;28;20127;-80
2024/01/26 07:38:04;;;;;;;;;;;;;;;-144.99;100.00;52505.16;5002199;28;20475;-80
2024/01/26 07:40:31;;;;;;;;;;;;;;;-144.99;100.00;52517.41;5002916;28;20016;-79
2024/01/26 07:42:57;;;;;;;;;;;;;;;-144.99;100.00;52578.53;5002618;28;20266;-80
2024/01/26 07:45:24;;;;;;;;;;;;;;;-144.99;100.00;52552.03;5009006;28;19929;-79
2024/01/26 07:47:52;;;;;;;;;;;;;;;-144.99;100.00;52562.25;5008208;28;20388;-80
2024/01/26 07:50:20;;;;;;;;;;;;;;;-144.99;100.00;52521.47;5010055;28;19929;-80
2024/01/26 07:52:47;;;;;;;;;;;;;;;-144.99;100.00;52519.44;5011665;28;19997;-79
2024/01/26 07:55:14;;;;;;;;;;;;;;;-144.99;100.00;52562.25;5006293;28;19930;-79
2024/01/26 07:57:40;;;;;;;;;;;;;;;-144.99;100.00;52539.81;4663086;28;9999810;-79
2024/01/26 08:00:08;;;;;;;;;;;;;;;-144.99;100.00;52578.53;5001542;28;19932;-80
2024/01/26 08:02:35;;;;;;;;;;;;;;;-144.99;100.00;52501.09;5007151;28;19929;-80
2024/01/26 08:05:02;;;;;;;;;;;;;;;-144.99;100.00;52545.94;5011647;28;19972;-80
2024/01/26 08:07:30;;;;;;;;;;;;;;;-144.99;100.00;52541.84;5003483;28;19980;-79
2024/01/26 08:09:57;;;;;;;;;;;;;;;-144.99;100.00;52539.81;5013153;28;19936;-80
2024/01/26 08:12:23;;;;;;;;;;;;;;;-144.99;100.00;52519.44;5007861;28;19937;-80
2024/01/26 08:14:50;;;;;;;;;;;;;;;-144.99;100.00;52564.28;4997417;28;20068;-77
2024/01/26 08:17:16;;;;;;;;;;;;;;;-144.99;100.00;52554.09;5001604;28;19929;-77
2024/01/26 08:19:43;;;;;;;;;;;;;;;-144.99;100.00;52562.25;5003161;28;19930;-77
2024/01/26 08:22:10;;;;;;;;;;;;;;;-144.99;100.00;52509.25;4996055;28;19964;-76
2024/01/26 08:24:38;;;;;;;;;;;;;;;-144.99;100.00;52517.41;5004900;28;19967;-75
2024/01/26 08:27:05;;;;;;;;;;;;;;;-144.99;100.00;52570.38;5000953;28;19933;-75
2024/01/26 08:29:31;;;;;;;;;;;;;;;-144.99;100.00;52562.25;5004364;28;19964;-74
2024/01/26 08:31:58;;;;;;;;;;;;;;;-144.99;100.00;52556.13;5002552;28;19929;-75
2024/01/26 08:34:25;;;;;;;;;;;;;;;-144.99;100.00;52521.47;5006063;28;20118;-74
2024/01/26 08:36:51;;;;;;;;;;;;;;;-144.99;100.00;52537.78;5003600;28;19936;-74
2024/01/26 08:39:18;;;;;;;;;;;;;;;-144.99;100.00;52541.84;5004472;28;20015;-74
2024/01/26 08:41:46;;;;;;;;;;;;;;;-144.99;100.00;52533.69;5003804;28;19934;-74
2024/01/26 08:44:13;;;;;;;;;;;;;;;-144.99;100.00;52521.47;5006698;28;19941;-74
2024/01/26 08:46:39;;;;;;;;;;;;;;;-144.99;100.00;52517.41;4986658;28;20221;-73
2024/01/26 08:49:07;;;;;;;;;;;;;;;-144.99;100.00;52501.09;5000253;28;20589;-73
2024/01/26 08:51:33;;;;;;;;;;;;;;;-144.99;100.00;52517.41;5006438;28;20279;-74
2024/01/26 08:54:00;;;;;;;;;;;;;;;-144.99;100.00;52517.41;5005503;28;19936;-73
2024/01/26 08:56:27;;;;;;;;;;;;;;;-144.99;100.00;52560.19;5006514;28;20006;-74
2024/01/26 08:58:55;;;;;;;;;;;;;;;-144.99;100.00;52550.00;5000469;28;19991;-74
2024/01/26 09:01:21;;;;;;;;;;;;;;;-144.99;100.00;52529.63;5005007;28;20336;-74
2024/01/26 09:03:47;;;;;;;;;;;;;;;-144.99;100.00;52523.50;5002627;28;19929;-76
2024/01/26 09:06:13;;;;;;;;;;;;;;;-144.99;100.00;52525.56;5006008;28;19938;-74
2024/01/26 09:08:40;;;;;;;;;;;;;;;-144.99;100.00;52525.56;4998470;28;20286;-73
2024/01/26 09:11:06;;;;;;;;;;;;;;;-144.99;100.00;52537.78;5004999;28;19929;-77
2024/01/26 09:13:33;;;;;;;;;;;;;;;-144.99;100.00;52525.56;5005735;28;20417;-74
2024/01/26 09:16:01;;;;;;;;;;;;;;;-144.99;100.00;52497.00;5002196;28;20043;-73
2024/01/26 09:18:27;;;;;;;;;;;;;;;-144.99;100.00;52515.34;5008573;28;20021;-73
2024/01/26 09:20:54;;;;;;;;;;;;;;;-144.99;100.00;52578.53;5006138;28;20008;-73
2024/01/26 09:23:20;;;;;;;;;;;;;;;-144.99;100.00;52533.69;5008877;28;19929;-74
2024/01/26 09:25:47;;;;;;;;;;;;;;;-144.99;100.00;52545.94;5002957;28;19930;-75
2024/01/26 09:28:13;;;;;;;;;;;;;;;-144.99;100.00;52519.44;5000727;28;19980;-74
2024/01/26 09:30:40;;;;;;;;;;;;;;;-144.99;100.00;52554.09;5005494;28;19926;-74
2024/01/26 09:33:08;;;;;;;;;;;;;;;-144.99;100.00;52509.25;5006388;28;19968;-75
2024/01/26 09:35:37;;;;;;;;;;;;;;;-144.99;100.00;52541.84;5007034;28;20412;-74
2024/01/26 09:38:04;;;;;;;;;;;;;;;-144.99;100.00;52533.69;5007848;28;20009;-74
2024/01/26 09:40:30;;;;;;;;;;;;;;;-144.99;100.00;52492.94;5007905;28;19967;-75
2024/01/26 09:42:57;;;;;;;;;;;;;;;-144.99;100.00;52529.63;5000695;28;20012;-74
2024/01/26 09:45:23;;;;;;;;;;;;;;;-144.99;100.00;52529.63;5000961;28;19983;-73
2024/01/26 09:47:51;;;;;;;;;;;;;;;-144.99;100.00;52545.94;5008372;28;19934;-74
2024/01/26 09:50:21;;;;;;;;;;;;;;;-144.99;100.00;52494.97;5008838;28;19936;-76
2024/01/26 09:52:47;;;;;;;;;;;;;;;-144.99;100.00;52497.00;5005540;28;19938;-76
2024/01/26 09:55:15;;;;;;;;;;;;;;;-144.99;100.00;52515.34;5007169;28;19987;-75
2024/01/26 09:57:42;;;;;;;;;;;;;;;-144.99;100.00;52541.84;5004800;28;20040;-76
2024/01/26 10:00:10;;;;;;;;;;;;;;;-144.99;100.00;52537.78;5006043;28;19941;-75
2024/01/26 10:02:37;;;;;;;;;;;;;;;-144.99;100.00;52529.63;5005461;28;19940;-74
2024/01/26 10:05:05;;;;;;;;;;;;;;;-144.99;100.00;52505.16;5007337;28;19960;-73
2024/01/26 10:07:32;;;;;;;;;;;;;;;-144.99;100.00;52515.34;5002612;28;19930;-73
2024/01/26 10:09:59;;;;;;;;;;;;;;;-144.99;100.00;52517.41;5004010;28;19933;-73
2024/01/26 10:12:25;;;;;;;;;;;;;;;-144.99;100.00;52515.34;5008039;28;20040;-73
2024/01/26 10:15:02;;;;;;;;;;;;;;;-144.99;100.00;52541.84;5005808;28;19935;-73
2024/01/26 10:17:28;;;;;;;;;;;;;;;-144.99;100.00;52570.38;5008184;28;20042;-74
2024/01/26 10:20:06;;;;;;;;;;;;;;;-144.99;100.00;52497.00;5008408;28;19934;-74
2024/01/26 10:22:34;;;;;;;;;;;;;;;-144.99;100.00;52529.63;5008698;28;20367;-74
2024/01/26 10:25:02;;;;;;;;;;;;;;;-144.99;100.00;52509.25;5005062;28;20044;-74
2024/01/26 10:27:29;;;;;;;;;;;;;;;-144.99;100.00;52533.69;5006495;28;20379;-73
2024/01/26 10:29:55;;;;;;;;;;;;;;;-144.99;100.00;52541.84;5005851;28;19965;-73
2024/01/26 10:32:25;;;;;;;;;;;;;;;-144.99;100.00;52537.78;5007825;28;20031;-73
2024/01/26 10:34:52;;;;;;;;;;;;;;;-144.99;100.00;52488.84;5006067;28;19992;-74
2024/01/26 10:37:20;;;;;;;;;;;;;;;-144.99;100.00;52505.16;4982424;28;20407;-74
2024/01/26 10:39:48;;;;;;;;;;;;;;;-144.99;100.00;52525.56;5007151;28;19936;-74
2024/01/26 10:42:15;;;;;;;;;;;;;;;-144.99;100.00;52509.25;5007528;28;20048;-74
2024/01/26 10:44:44;;;;;;;;;;;;;;;-144.99;100.00;52552.03;5006711;28;20024;-74
2024/01/26 10:47:12;;;;;;;;;;;;;;;-144.99;100.00;52509.25;5006039;28;20074;-73
2024/01/26 10:49:40;;;;;;;;;;;;;;;-144.99;100.00;52511.28;5005541;28;19932;-73
2024/01/26 10:52:07;;;;;;;;;;;;;;;-144.99;100.00;52501.09;5008651;28;20465;-72
2024/01/26 10:54:34;;;;;;;;;;;;;;;-144.99;100.00;52460.31;5007318;28;19930;-72
2024/01/26 10:57:02;;;;;;;;;;;;;;;-144.99;100.00;52513.31;4997398;28;19968;-72
2024/01/26 10:59:28;;;;;;;;;;;;;;;-144.99;100.00;52509.25;5004622;28;19929;-72
2024/01/26 11:01:55;;;;;;;;;;;;;;;-144.99;100.00;52545.94;5003564;28;19968;-73
2024/01/26 11:04:22;;;;;;;;;;;;;;;-144.99;100.00;52529.63;5007530;28;19925;-73
2024/01/26 11:06:48;;;;;;;;;;;;;;;-144.99;100.00;52515.34;4998145;28;19936;-72
2024/01/26 11:09:16;;;;;;;;;;;;;;;-144.99;100.00;52497.00;5005284;28;19937;-72
2024/01/26 11:11:43;;;;;;;;;;;;;;;-144.99;100.00;52513.31;4982857;28;19933;-73
2024/01/26 11:14:12;;;;;;;;;;;;;;;-144.99;100.00;52513.31;5002190;28;19975;-72
2024/01/26 11:16:40;;;;;;;;;;;;;;;-144.99;100.00;52562.25;5007474;28;20376;-72
2024/01/26 11:19:07;;;;;;;;;;;;;;;-144.99;100.00;52517.41;5005145;28;20115;-72
2024/01/26 11:21:37;;;;;;;;;;;;;;;-144.99;100.00;52529.63;5005985;28;19934;-72
2024/01/26 11:24:11;;;;;;;;;;;;;;;-144.99;100.00;52562.25;5005378;28;19929;-72
2024/01/26 11:26:38;;;;;;;;;;;;;;;-144.99;100.00;52513.31;5002157;28;19929;-72
2024/01/26 11:29:10;;;;;;;;;;;;;;;-144.99;100.00;52525.56;5004535;28;19976;-73
2024/01/26 11:31:39;;;;;;;;;;;;;;;-144.99;100.00;52517.41;5002086;28;19936;-74
2024/01/26 11:34:05;;;;;;;;;;;;;;;-144.99;100.00;52497.00;5007853;28;19996;-73
2024/01/26 11:36:32;;;;;;;;;;;;;;;-144.99;100.00;52529.63;5007052;28;19980;-73
2024/01/26 11:38:59;;;;;;;;;;;;;;;-144.99;100.00;52525.56;5005866;28;20020;-74
2024/01/26 11:41:26;;;;;;;;;;;;;;;-144.99;100.00;52503.13;5001427;28;19929;-73
2024/01/26 11:43:53;;;;;;;;;;;;;;;-144.99;100.00;52531.66;5003681;28;19997;-74
2024/01/26 11:46:20;;;;;;;;;;;;;;;-144.99;100.00;52529.63;4996170;28;19981;-74
2024/01/26 11:48:50;;;;;;;;;;;;;;;-144.99;100.00;52525.56;5004240;28;19934;-75
2024/01/26 11:51:17;;;;;;;;;;;;;;;-144.99;100.00;52570.38;5004520;28;20417;-74
2024/01/26 11:53:43;;;;;;;;;;;;;;;-144.99;100.00;52515.34;5001576;28;20351;-73
2024/01/26 11:56:10;;;;;;;;;;;;;;;-144.99;100.00;52541.84;5006271;28;20299;-73
2024/01/26 11:58:38;;;;;;;;;;;;;;;-144.99;100.00;52570.38;5001499;28;19957;-75
2024/01/26 12:01:06;;;;;;;;;;;;;;;-144.99;100.00;52497.00;5001731;28;20418;-75
2024/01/26 12:03:32;;;;;;;;;;;;;;;-144.99;100.00;52480.72;5001953;28;19925;-73
2024/01/26 12:06:00;;;;;;;;;;;;;;;-144.99;100.00;52541.84;5004522;28;20518;-72
2024/01/26 12:08:27;;;;;;;;;;;;;;;-144.99;100.00;52533.69;5004070;28;20016;-73
2024/01/26 12:10:54;;;;;;;;;;;;;;;-144.99;100.00;52574.47;5004185;28;19953;-73
2024/01/26 12:13:21;;;;;;;;;;;;;;;-144.99;100.00;52529.63;5006058;28;19984;-72
2024/01/26 12:15:47;;;;;;;;;;;;;;;-144.99;100.00;52564.28;5005583;28;19998;-73